createdAt,value
2022-09-20T00:00:18.494Z,100318.50
2022-09-20T00:03:23.607Z,100313.25
2022-09-20T00:06:29.969Z,100315.28
2022-09-20T00:09:32.823Z,100317.03
2022-09-20T00:12:35.389Z,100318.22
2022-09-20T00:15:43.864Z,100309.84
2022-09-20T00:18:54.227Z,100325.13
2022-09-20T00:21:58.529Z,100327.84
2022-09-20T00:25:01.046Z,100323.25
2022-09-20T00:28:03.933Z,100329.06
2022-09-20T00:31:07.839Z,100330.19
2022-09-20T00:34:32.378Z,100327.34
2022-09-20T00:37:36.266Z,100335.00
2022-09-20T00:40:39.823Z,100327.53
2022-09-20T00:43:45.520Z,100322.75
2022-09-20T00:46:48.517Z,100328.44
2022-09-20T00:49:56.584Z,100329.31
2022-09-20T00:53:31.470Z,100334.25
2022-09-20T00:56:39.000Z,100340.69
2022-09-20T00:59:47.137Z,100346.66
2022-09-20T01:02:54.017Z,100346.88
2022-09-20T01:05:58.796Z,100344.63
2022-09-20T01:09:05.668Z,100349.13
2022-09-20T01:12:15.122Z,100340.69
2022-09-20T01:15:20.971Z,100341.47
2022-09-20T01:18:24.232Z,100327.72
2022-09-20T01:21:29.184Z,100337.97
2022-09-20T01:24:53.075Z,100338.16
2022-09-20T01:27:56.946Z,100326.66
2022-09-20T01:31:32.330Z,100343.50
2022-09-20T01:35:01.328Z,100345.19
2022-09-20T01:38:29.012Z,100345.34
2022-09-20T01:42:00.202Z,100346.66
2022-09-20T01:45:10.197Z,100344.91
2022-09-20T01:48:36.241Z,100352.78
2022-09-20T01:52:18.777Z,100347.22
2022-09-20T01:55:27.264Z,100356.66
2022-09-20T01:59:19.366Z,100348.91
2022-09-20T02:02:54.082Z,100362.53
2022-09-20T02:06:54.493Z,100357.12
2022-09-20T02:10:05.983Z,100353.41
2022-09-20T02:13:27.373Z,100358.81
2022-09-20T02:16:52.093Z,100342.69
2022-09-20T02:20:08.108Z,100358.66
2022-09-20T02:23:19.723Z,100358.22
2022-09-20T02:27:07.839Z,100361.91
2022-09-20T02:30:25.666Z,100356.03
2022-09-20T02:33:59.119Z,100357.59
2022-09-20T02:37:25.664Z,100361.00
2022-09-20T02:40:50.147Z,100361.00
2022-09-20T02:44:17.666Z,100357.19
2022-09-20T02:47:40.203Z,100354.97
2022-09-20T02:50:59.970Z,100353.94
2022-09-20T02:54:24.852Z,100359.25
2022-09-20T02:58:09.109Z,100361.31
2022-09-20T03:01:33.243Z,100366.03
2022-09-20T03:05:10.243Z,100364.28
2022-09-20T03:08:59.183Z,100366.84
2022-09-20T03:12:28.567Z,100370.50
2022-09-20T03:15:50.169Z,100370.13
2022-09-20T03:19:13.451Z,100369.63
2022-09-20T03:22:39.664Z,100364.59
2022-09-20T03:25:51.911Z,100351.16
2022-09-20T03:29:05.487Z,100357.34
2022-09-20T03:32:17.006Z,100352.19
2022-09-20T03:35:54.927Z,100356.47
2022-09-20T03:39:35.680Z,100354.44
2022-09-20T03:42:49.076Z,100356.91
2022-09-20T03:46:21.437Z,100366.47
2022-09-20T03:49:43.788Z,100368.69
2022-09-20T03:53:14.092Z,100359.81
2022-09-20T03:56:22.996Z,100373.00
2022-09-20T03:59:57.029Z,100367.56
2022-09-20T04:03:23.158Z,100373.53
2022-09-20T04:06:38.329Z,100368.28
2022-09-20T04:10:01.195Z,100373.91
2022-09-20T04:13:35.083Z,100373.63
2022-09-20T04:16:58.643Z,100362.50
2022-09-20T04:20:15.705Z,100371.66
2022-09-20T04:23:56.072Z,100373.66
2022-09-20T04:27:25.823Z,100373.47
2022-09-20T04:30:32.101Z,100379.00
2022-09-20T04:33:45.402Z,100377.75
2022-09-20T04:36:58.822Z,100377.38
2022-09-20T04:40:16.114Z,100393.78
2022-09-20T04:43:32.353Z,100401.00
2022-09-20T04:47:09.783Z,100408.72
2022-09-20T04:50:30.117Z,100401.12
2022-09-20T04:54:10.371Z,100410.37
2022-09-20T04:57:53.052Z,100405.34
2022-09-20T05:00:59.026Z,100406.66
2022-09-20T05:04:40.509Z,100409.50
2022-09-20T05:08:21.304Z,100397.69
2022-09-20T05:11:39.151Z,100404.94
2022-09-20T05:14:51.193Z,100414.22
2022-09-20T05:18:10.957Z,100416.91
2022-09-20T05:21:35.089Z,100420.28
2022-09-20T05:24:40.517Z,100425.56
2022-09-20T05:28:07.269Z,100421.44
2022-09-20T05:31:33.989Z,100425.03
2022-09-20T05:34:48.795Z,100428.31
2022-09-20T05:38:20.874Z,100433.50
2022-09-20T05:41:52.526Z,100432.53
2022-09-20T05:45:23.998Z,100443.19
2022-09-20T05:48:32.614Z,100439.81
2022-09-20T05:51:56.344Z,100442.69
2022-09-20T05:55:20.980Z,100430.47
2022-09-20T05:58:46.559Z,100439.31
2022-09-20T06:02:21.759Z,100437.44
2022-09-20T06:06:02.825Z,100435.91
2022-09-20T06:09:27.186Z,100447.97
2022-09-20T06:12:43.125Z,100448.75
2022-09-20T06:15:57.529Z,100447.09
2022-09-20T06:19:29.374Z,100445.47
2022-09-20T06:22:45.200Z,100448.38
2022-09-20T06:25:48.023Z,100448.06
2022-09-20T06:28:58.205Z,100456.53
2022-09-20T06:32:01.646Z,100452.53
2022-09-20T06:35:05.403Z,100454.44
2022-09-20T06:38:57.625Z,100455.03
2022-09-20T06:42:01.077Z,100453.41
2022-09-20T06:45:04.643Z,100448.38
2022-09-20T06:48:09.189Z,100453.47
2022-09-20T06:51:12.566Z,100449.94
2022-09-20T06:54:18.769Z,100456.09
2022-09-20T06:57:37.198Z,100453.44
2022-09-20T07:00:42.725Z,100448.00
2022-09-20T07:03:49.845Z,100446.13
2022-09-20T07:06:54.375Z,100447.69
2022-09-20T07:09:58.672Z,100444.41
2022-09-20T07:13:02.494Z,100449.12
2022-09-20T07:16:08.677Z,100453.34
2022-09-20T07:19:11.279Z,100454.13
2022-09-20T07:22:14.709Z,100456.50
2022-09-20T07:25:18.407Z,100461.63
2022-09-20T07:28:21.478Z,100457.59
2022-09-20T07:31:26.573Z,100463.75
2022-09-20T07:34:29.749Z,100464.50
2022-09-20T07:37:36.847Z,100467.66
2022-09-20T07:40:40.125Z,100465.25
2022-09-20T07:43:42.814Z,100467.56
2022-09-20T07:46:48.226Z,100469.91
2022-09-20T07:49:51.561Z,100466.41
2022-09-20T07:52:57.548Z,100461.16
2022-09-20T07:56:02.459Z,100468.78
2022-09-20T07:59:06.089Z,100469.72
2022-09-20T08:02:15.097Z,100465.84
2022-09-20T08:05:18.073Z,100470.72
2022-09-20T08:08:20.806Z,100467.87
2022-09-20T08:11:27.770Z,100467.75
2022-09-20T08:14:30.654Z,100471.09
2022-09-20T08:17:34.592Z,100473.31
2022-09-20T08:20:38.738Z,100470.53
2022-09-20T08:23:43.858Z,100474.50
2022-09-20T08:26:46.983Z,100480.50
2022-09-20T08:29:50.347Z,100479.69
2022-09-20T08:32:54.086Z,100476.03
2022-09-20T08:35:57.663Z,100473.19
2022-09-20T08:42:33.870Z,100466.72
2022-09-20T08:45:38.905Z,100467.50
2022-09-20T08:48:42.165Z,100465.31
2022-09-20T08:51:49.340Z,100466.88
2022-09-20T08:54:52.406Z,100474.87
2022-09-20T08:57:58.305Z,100473.66
2022-09-20T09:01:01.680Z,100463.34
2022-09-20T09:04:17.491Z,100472.50
2022-09-20T09:07:22.766Z,100462.94
2022-09-20T09:10:25.425Z,100475.31
2022-09-20T09:13:37.739Z,100464.88
2022-09-20T09:16:40.454Z,100465.59
2022-09-20T09:19:54.514Z,100464.56
2022-09-20T09:23:07.654Z,100475.94
2022-09-20T09:26:21.387Z,100468.53
2022-09-20T09:29:24.537Z,100468.09
2022-09-20T09:32:33.564Z,100465.69
2022-09-20T09:35:36.540Z,100466.19
2022-09-20T09:38:41.753Z,100458.59
2022-09-20T09:41:46.556Z,100457.03
2022-09-20T09:44:50.601Z,100466.41
2022-09-20T09:47:53.981Z,100452.22
2022-09-20T09:51:12.878Z,100443.50
2022-09-20T09:54:20.042Z,100448.78
2022-09-20T09:57:41.365Z,100438.50
2022-09-20T10:00:46.885Z,100439.50
2022-09-20T10:04:01.756Z,100446.09
2022-09-20T10:07:25.252Z,100443.75
2022-09-20T10:10:45.353Z,100446.13
2022-09-20T10:14:06.764Z,100450.87
2022-09-20T10:17:35.046Z,100450.06
2022-09-20T10:20:57.695Z,100449.72
2022-09-20T10:24:06.526Z,100448.75
2022-09-20T10:27:14.836Z,100439.12
2022-09-20T10:30:22.475Z,100446.75
2022-09-20T10:33:43.356Z,100450.66
2022-09-20T10:36:56.037Z,100437.50
2022-09-20T10:40:47.568Z,100432.53
2022-09-20T10:43:53.701Z,100433.06
2022-09-20T10:46:59.677Z,100428.69
2022-09-20T10:50:48.641Z,100429.72
2022-09-20T10:54:18.044Z,100421.59
2022-09-20T10:57:46.600Z,100423.63
2022-09-20T11:01:08.081Z,100418.97
2022-09-20T11:04:37.202Z,100428.31
2022-09-20T11:07:54.925Z,100422.16
2022-09-20T11:11:45.753Z,100430.72
2022-09-20T11:14:56.016Z,100434.88
2022-09-20T11:18:46.850Z,100430.97
2022-09-20T11:21:57.438Z,100440.97
2022-09-20T11:25:21.507Z,100456.81
2022-09-20T11:28:34.188Z,100445.28
2022-09-20T11:31:43.738Z,100446.16
2022-09-20T11:34:56.496Z,100437.78
2022-09-20T11:38:16.568Z,100437.75
2022-09-20T11:41:27.536Z,100439.78
2022-09-20T11:44:42.128Z,100444.53
2022-09-20T11:47:54.907Z,100416.09
2022-09-20T11:51:21.481Z,100420.00
2022-09-20T11:54:39.805Z,100420.31
2022-09-20T11:57:43.850Z,100414.38
2022-09-20T12:00:50.703Z,100415.81
2022-09-20T12:04:20.618Z,100420.84
2022-09-20T12:07:26.190Z,100417.66
2022-09-20T12:10:35.399Z,100412.00
2022-09-20T12:13:40.895Z,100406.84
2022-09-20T12:16:48.706Z,100413.47
2022-09-20T12:19:51.355Z,100411.19
2022-09-20T12:23:32.712Z,100409.78
2022-09-20T12:26:38.236Z,100403.13
2022-09-20T12:29:52.939Z,100395.12
2022-09-20T12:32:57.962Z,100386.78
2022-09-20T12:36:15.932Z,100384.47
2022-09-20T12:39:27.577Z,100389.63
2022-09-20T12:42:34.582Z,100395.12
2022-09-20T12:45:37.514Z,100394.09
2022-09-20T12:48:40.599Z,100393.06
2022-09-20T12:52:09.691Z,100390.06
2022-09-20T12:55:31.739Z,100387.28
2022-09-20T12:58:48.531Z,100385.91
2022-09-20T13:01:52.386Z,100406.31
2022-09-20T13:04:56.058Z,100396.75
2022-09-20T13:08:10.181Z,100400.53
2022-09-20T13:11:18.885Z,100389.03
2022-09-20T13:14:33.332Z,100383.59
2022-09-20T13:17:37.445Z,100387.88
2022-09-20T13:20:43.004Z,100385.56
2022-09-20T13:23:50.192Z,100382.22
2022-09-20T13:26:56.268Z,100384.44
2022-09-20T13:30:17.688Z,100377.47
2022-09-20T13:33:25.386Z,100383.75
2022-09-20T13:36:30.439Z,100375.59
2022-09-20T13:39:37.446Z,100372.84
2022-09-20T13:42:42.883Z,100377.22
2022-09-20T13:45:56.552Z,100373.06
2022-09-20T13:49:20.976Z,100368.87
2022-09-20T13:52:26.597Z,100375.56
2022-09-20T13:55:35.325Z,100362.97
2022-09-20T13:58:38.522Z,100368.81
2022-09-20T14:01:51.669Z,100373.19
2022-09-20T14:04:57.454Z,100379.63
2022-09-20T14:08:01.329Z,100385.13
2022-09-20T14:11:12.478Z,100386.88
2022-09-20T14:14:22.040Z,100395.31
2022-09-20T14:17:36.075Z,100411.81
2022-09-20T14:20:45.009Z,100425.00
2022-09-20T14:23:59.991Z,100434.88
2022-09-20T14:27:21.208Z,100440.22
2022-09-20T14:30:36.768Z,100451.00
2022-09-20T14:33:51.757Z,100451.28
2022-09-20T14:37:52.180Z,100448.72
2022-09-20T14:40:58.585Z,100453.00
2022-09-20T14:44:07.713Z,100454.88
2022-09-20T14:47:18.133Z,100443.50
2022-09-20T14:50:37.660Z,100451.88
2022-09-20T14:53:42.558Z,100444.66
2022-09-20T15:00:06.143Z,100456.59
2022-09-20T15:03:18.500Z,100447.28
2022-09-20T15:06:24.454Z,100454.19
2022-09-20T15:09:32.420Z,100454.75
2022-09-20T15:12:39.883Z,100450.06
2022-09-20T15:15:44.690Z,100448.94
2022-09-20T15:18:47.476Z,100457.66
2022-09-20T15:21:50.418Z,100449.41
2022-09-20T15:24:53.010Z,100458.19
2022-09-20T15:27:58.052Z,100452.62
2022-09-20T15:31:00.780Z,100454.94
2022-09-20T15:34:07.178Z,100454.88
2022-09-20T15:37:09.890Z,100457.13
2022-09-20T15:40:13.067Z,100464.09
2022-09-20T15:43:18.011Z,100466.91
2022-09-20T15:46:23.423Z,100468.72
2022-09-20T15:49:26.865Z,100462.75
2022-09-20T15:52:34.655Z,100463.03
2022-09-20T15:55:37.282Z,100458.09
2022-09-20T15:58:47.007Z,100459.31
2022-09-20T16:01:49.991Z,100467.56
2022-09-20T16:04:55.941Z,100468.72
2022-09-20T16:07:58.641Z,100473.91
2022-09-20T16:11:02.357Z,100480.94
2022-09-20T16:14:05.874Z,100482.47
2022-09-20T16:17:08.847Z,100483.59
2022-09-20T16:20:11.528Z,100488.56
2022-09-20T16:23:14.531Z,100491.75
2022-09-20T16:26:18.458Z,100496.09
2022-09-20T16:29:22.420Z,100489.94
2022-09-20T16:32:24.970Z,100492.16
2022-09-20T16:35:28.000Z,100489.22
2022-09-20T16:38:30.618Z,100492.34
2022-09-20T16:41:33.903Z,100495.81
2022-09-20T16:44:38.011Z,100501.66
2022-09-20T16:47:41.294Z,100496.28
2022-09-20T16:50:47.554Z,100504.13
2022-09-20T16:53:53.536Z,100505.59
2022-09-20T16:56:56.221Z,100498.31
2022-09-20T16:59:59.858Z,100501.81
2022-09-20T17:03:02.511Z,100502.91
2022-09-20T17:06:06.890Z,100504.41
2022-09-20T17:09:10.031Z,100503.56
2022-09-20T17:12:13.902Z,100510.00
2022-09-20T17:15:16.701Z,100514.97
2022-09-20T17:18:20.809Z,100523.72
2022-09-20T17:21:23.426Z,100522.94
2022-09-20T17:24:26.516Z,100524.87
2022-09-20T17:27:29.242Z,100534.44
2022-09-20T17:30:32.853Z,100533.78
2022-09-20T17:33:37.092Z,100532.50
2022-09-20T17:36:43.765Z,100534.16
2022-09-20T17:39:46.618Z,100536.63
2022-09-20T17:42:49.571Z,100533.91
2022-09-20T17:45:52.209Z,100539.16
2022-09-20T17:48:57.293Z,100542.37
2022-09-20T17:52:00.168Z,100544.88
2022-09-20T17:55:04.228Z,100553.09
2022-09-20T17:58:08.239Z,100555.34
2022-09-20T18:01:16.824Z,100557.69
2022-09-20T18:04:25.320Z,100562.56
2022-09-20T18:07:28.037Z,100558.28
2022-09-20T18:10:31.771Z,100567.91
2022-09-20T18:13:37.874Z,100565.63
2022-09-20T18:16:44.388Z,100566.72
2022-09-20T18:19:47.025Z,100573.75
2022-09-20T18:22:50.096Z,100577.41
2022-09-20T18:26:12.300Z,100585.06
2022-09-20T18:29:18.410Z,100583.88
2022-09-20T18:32:21.074Z,100579.81
2022-09-20T18:35:25.287Z,100588.41
2022-09-20T18:38:28.064Z,100587.22
2022-09-20T18:41:33.595Z,100593.94
2022-09-20T18:44:36.666Z,100602.78
2022-09-20T18:47:42.786Z,100597.81
2022-09-20T18:50:56.610Z,100602.56
2022-09-20T18:54:00.706Z,100607.25
2022-09-20T18:57:03.523Z,100611.44
2022-09-20T19:00:09.673Z,100616.19
2022-09-20T19:03:24.542Z,100616.41
2022-09-20T19:06:36.642Z,100624.81
2022-09-20T19:09:54.548Z,100618.28
2022-09-20T19:13:16.487Z,100617.25
2022-09-20T19:16:27.915Z,100621.56
2022-09-20T19:19:34.031Z,100627.75
2022-09-20T19:23:04.890Z,100615.44
2022-09-20T19:26:24.198Z,100622.00
2022-09-20T19:29:34.012Z,100621.56
2022-09-20T19:32:49.480Z,100625.06
2022-09-20T19:36:03.292Z,100624.53
2022-09-20T19:39:40.200Z,100617.38
2022-09-20T19:43:18.986Z,100622.19
2022-09-20T19:46:42.194Z,100617.81
2022-09-20T19:50:20.909Z,100624.25
2022-09-20T19:53:36.370Z,100610.50
2022-09-20T19:56:58.259Z,100621.69
2022-09-20T20:00:11.787Z,100622.50
2022-09-20T20:03:29.436Z,100624.47
2022-09-20T20:07:05.228Z,100627.16
2022-09-20T20:10:31.650Z,100632.00
2022-09-20T20:14:04.383Z,100641.56
2022-09-20T20:17:30.837Z,100636.34
2022-09-20T20:20:45.859Z,100638.78
2022-09-20T20:24:29.799Z,100639.94
2022-09-20T20:27:36.553Z,100638.06
2022-09-20T20:30:42.334Z,100643.34
2022-09-20T20:33:47.136Z,100650.75
2022-09-20T20:36:58.558Z,100654.75
2022-09-20T20:40:03.171Z,100660.13
2022-09-20T20:43:07.600Z,100656.91
2022-09-20T20:46:20.231Z,100671.37
2022-09-20T20:49:27.087Z,100661.91
2022-09-20T20:52:31.560Z,100674.22
2022-09-20T20:55:34.510Z,100675.13
2022-09-20T20:58:43.402Z,100673.06
2022-09-20T21:01:47.648Z,100674.22
2022-09-20T21:04:50.203Z,100677.34
2022-09-20T21:07:53.543Z,100677.69
2022-09-20T21:11:06.322Z,100682.69
2022-09-20T21:14:13.818Z,100688.06
2022-09-20T21:17:16.458Z,100679.38
2022-09-20T21:20:21.198Z,100691.16
2022-09-20T21:23:24.872Z,100694.63
2022-09-20T21:26:35.208Z,100689.81
2022-09-20T21:29:43.013Z,100697.13
2022-09-20T21:32:49.963Z,100695.72
2022-09-20T21:36:00.624Z,100698.63
2022-09-20T21:39:06.590Z,100698.31
2022-09-20T21:42:11.542Z,100694.97
2022-09-20T21:45:17.429Z,100698.53
2022-09-20T21:48:24.880Z,100702.78
2022-09-20T21:51:31.970Z,100707.69
2022-09-20T21:54:34.731Z,100703.25
2022-09-20T21:57:39.919Z,100713.19
2022-09-20T22:00:43.588Z,100712.59
2022-09-20T22:03:55.781Z,100712.59
2022-09-20T22:06:58.631Z,100708.69
2022-09-20T22:10:01.753Z,100710.78
2022-09-20T22:13:07.606Z,100717.00
2022-09-20T22:16:18.379Z,100721.72
2022-09-20T22:19:24.650Z,100714.22
2022-09-20T22:22:27.828Z,100718.28
2022-09-20T22:25:34.429Z,100712.91
2022-09-20T22:28:37.923Z,100714.38
2022-09-20T22:31:47.592Z,100713.75
2022-09-20T22:34:50.487Z,100711.59
2022-09-20T22:37:53.057Z,100717.25
2022-09-20T22:41:01.015Z,100720.69
2022-09-20T22:44:04.678Z,100717.75
2022-09-20T22:47:11.280Z,100718.56
2022-09-20T22:50:16.050Z,100726.38
2022-09-20T22:53:19.347Z,100731.22
2022-09-20T22:56:25.760Z,100726.56
2022-09-20T22:59:29.354Z,100719.63
2022-09-20T23:02:31.905Z,100715.37
2022-09-20T23:05:43.816Z,100722.34
2022-09-20T23:08:54.298Z,100724.69
2022-09-20T23:11:58.387Z,100722.50
2022-09-20T23:15:06.943Z,100721.31
2022-09-20T23:18:09.859Z,100722.72
2022-09-20T23:21:13.858Z,100724.97
2022-09-20T23:24:21.094Z,100729.19
2022-09-20T23:27:24.829Z,100721.25
2022-09-20T23:30:33.811Z,100729.06
2022-09-20T23:33:37.407Z,100725.37
2022-09-20T23:36:41.452Z,100724.72
2022-09-20T23:39:44.256Z,100728.03
2022-09-20T23:42:47.169Z,100731.97
2022-09-20T23:45:51.547Z,100730.38
2022-09-20T23:48:56.724Z,100729.41
2022-09-20T23:52:00.408Z,100736.34
2022-09-20T23:55:08.371Z,100736.69
2022-09-20T23:58:15.201Z,100737.06
